This is the latest recevied weather packets stored in our database for station/object DK8RG-15. If no packets are shown the sender has not sent any weather packets the latest 10 day(s).
| Time | Temp. | Humidity | Pressure | Rain* | Wind** | Luminosity | Snow |
|---|---|---|---|---|---|---|---|
| 1777845626 | 12.22° C | 68% | 1010 hPa | 0 mm | - | - | - |
| 1777845016 | 12.78° C | 67% | 1010.1 hPa | 0 mm | - | - | - |
| 1777844415 | 12.78° C | 66% | 1010 hPa | 0 mm | - | - | - |
| 1777843815 | 12.78° C | 66% | 1010 hPa | 0 mm | - | - | - |
| 1777843215 | 12.78° C | 66% | 1010 hPa | 0 mm | - | - | - |
| 1777842616 | 12.78° C | 66% | 1010 hPa | 0 mm | - | - | - |
| 1777842016 | 13.89° C | 66% | 1010 hPa | 0 mm | - | - | - |
| 1777841415 | 13.89° C | 65% | 1010 hPa | 0 mm | - | - | - |
| 1777840816 | 14.44° C | 63% | 1010.1 hPa | 0 mm | - | - | - |
| 1777840215 | 15° C | 62% | 1010.1 hPa | 0 mm | - | - | - |
| 1777839615 | 15° C | 62% | 1010.1 hPa | 0 mm | - | - | - |
| 1777839015 | 15.56° C | 60% | 1010.2 hPa | 0 mm | - | - | - |
| 1777838416 | 16.67° C | 58% | 1010.2 hPa | 0 mm | - | - | - |
| 1777837817 | 17.78° C | 53% | 1010.2 hPa | 0 mm | - | - | - |
| 1777837216 | 18.89° C | 48% | 1010.2 hPa | 0 mm | - | - | - |
| 1777836616 | 18.89° C | 48% | 1010.2 hPa | 0 mm | - | - | - |
| 1777836016 | 18.89° C | 50% | 1010.2 hPa | 0 mm | - | - | - |
| 1777835417 | 18.89° C | 49% | 1010.3 hPa | 0 mm | - | - | - |
| 1777834816 | 19.44° C | 46% | 1010.2 hPa | 0 mm | - | - | - |
| 1777834216 | 20.56° C | 44% | 1009.3 hPa | 0 mm | - | - | - |
| 1777833616 | 21.11° C | 43% | 1009.3 hPa | 0 mm | - | - | - |
| 1777833016 | 21.11° C | 43% | 1009.3 hPa | 0 mm | - | - | - |
| 1777832416 | 21.67° C | 41% | 1009.3 hPa | 0 mm | - | - | - |
| 1777831816 | 22.22° C | 39% | 1009.3 hPa | 0 mm | - | - | - |
| 1777831216 | 22.78° C | 37% | 1009.3 hPa | 0 mm | - | - | - |
* Rain latest hour (hover to see other rain measurements)
** Current wind speed in m/s (hover to see current wind gust speed)